createdAt,value
2023-02-13T00:00:44.705Z,-1.19
2023-02-13T00:03:46.997Z,-1.39
2023-02-13T00:06:49.748Z,-1.21
2023-02-13T00:09:51.898Z,-1.15
2023-02-13T00:12:54.088Z,-1.32
2023-02-13T00:16:00.631Z,-1.50
2023-02-13T00:19:02.949Z,-1.48
2023-02-13T00:22:05.142Z,-1.36
2023-02-13T00:25:08.559Z,-1.47
2023-02-13T00:28:10.792Z,-1.65
2023-02-13T00:31:15.669Z,-1.67
2023-02-13T00:34:17.966Z,-1.64
2023-02-13T00:37:20.200Z,-1.35
2023-02-13T00:40:22.486Z,-1.59
2023-02-13T00:43:24.659Z,-1.51
2023-02-13T00:46:26.902Z,-1.59
2023-02-13T00:49:29.127Z,-1.71
2023-02-13T00:52:31.330Z,-1.76
2023-02-13T00:55:35.301Z,-2.08
2023-02-13T00:58:37.756Z,-2.32
2023-02-13T01:01:39.986Z,-2.32
2023-02-13T01:04:42.238Z,-2.46
2023-02-13T01:07:44.438Z,-2.55
2023-02-13T01:10:47.717Z,-2.48
2023-02-13T01:13:49.875Z,-2.18
2023-02-13T01:16:52.113Z,-1.84
2023-02-13T01:19:54.541Z,-2.11
2023-02-13T01:22:57.485Z,-2.32
2023-02-13T01:26:00.281Z,-2.51
2023-02-13T01:29:02.455Z,-2.69
2023-02-13T01:32:05.318Z,-2.80
2023-02-13T01:35:08.680Z,-2.92
2023-02-13T01:38:10.886Z,-2.69
2023-02-13T01:41:13.767Z,-2.53
2023-02-13T01:44:56.881Z,-2.55
2023-02-13T01:48:05.926Z,-2.36
2023-02-13T01:51:13.128Z,-2.75
2023-02-13T01:54:30.873Z,-2.65
2023-02-13T01:57:33.320Z,-2.78
2023-02-13T02:00:36.727Z,-2.92
2023-02-13T02:03:43.622Z,-3.04
2023-02-13T02:06:53.348Z,-3.23
2023-02-13T02:09:59.032Z,-3.20
2023-02-13T02:13:18.572Z,-3.13
2023-02-13T02:16:20.998Z,-3.05
2023-02-13T02:19:48.672Z,-3.28
2023-02-13T02:23:03.170Z,-3.09
2023-02-13T02:26:24.233Z,-3.21
2023-02-13T02:29:54.106Z,-3.36
2023-02-13T02:33:37.522Z,-3.38
2023-02-13T02:37:10.570Z,-3.11
2023-02-13T02:40:19.768Z,-2.90
2023-02-13T02:43:35.683Z,-2.81
2023-02-13T02:47:02.486Z,-2.89
2023-02-13T02:50:16.653Z,-2.95
2023-02-13T02:53:33.663Z,-2.88
2023-02-13T02:56:41.172Z,-2.99
2023-02-13T03:00:02.665Z,-2.97
2023-02-13T03:03:36.689Z,-3.09
2023-02-13T03:06:46.162Z,-3.41
2023-02-13T03:10:24.281Z,-3.42
2023-02-13T03:13:47.490Z,-3.31
2023-02-13T03:17:09.332Z,-3.45
2023-02-13T03:20:30.620Z,-3.46
2023-02-13T03:23:32.733Z,-3.62
2023-02-13T03:26:50.464Z,-3.75
2023-02-13T03:30:08.290Z,-3.64
2023-02-13T03:33:33.749Z,-3.42
2023-02-13T03:37:18.505Z,-3.16
2023-02-13T03:40:29.713Z,-3.16
2023-02-13T03:43:38.306Z,-3.04
2023-02-13T03:46:44.685Z,-3.08
2023-02-13T03:50:06.634Z,-3.15
2023-02-13T03:53:11.935Z,-3.19
2023-02-13T03:56:35.708Z,-3.27
2023-02-13T03:59:37.913Z,-3.34
2023-02-13T04:02:57.986Z,-3.41
2023-02-13T04:06:29.583Z,-3.58
2023-02-13T04:09:33.715Z,-3.49
2023-02-13T04:12:40.923Z,-3.62
2023-02-13T04:15:50.703Z,-3.68
2023-02-13T04:18:53.352Z,-3.78
2023-02-13T04:21:58.031Z,-3.67
2023-02-13T04:25:00.652Z,-3.80
2023-02-13T04:28:02.889Z,-3.70
2023-02-13T04:31:05.311Z,-3.63
2023-02-13T04:34:07.617Z,-3.58
2023-02-13T04:37:09.860Z,-3.66
2023-02-13T04:40:12.272Z,-3.61
2023-02-13T04:43:14.427Z,-3.60
2023-02-13T04:46:16.598Z,-3.66
2023-02-13T04:49:19.055Z,-3.46
2023-02-13T04:52:21.234Z,-3.39
2023-02-13T04:55:24.762Z,-3.60
2023-02-13T04:58:26.962Z,-3.56
2023-02-13T05:01:29.393Z,-3.37
2023-02-13T05:04:31.748Z,-3.37
2023-02-13T05:07:33.977Z,-3.40
2023-02-13T05:10:36.850Z,-3.59
2023-02-13T05:13:39.029Z,-3.61
2023-02-13T05:16:41.238Z,-3.52
2023-02-13T05:19:43.452Z,-3.54
2023-02-13T05:23:05.290Z,-3.56
2023-02-13T05:26:07.510Z,-3.65
2023-02-13T05:29:19.749Z,-3.99
2023-02-13T05:32:22.032Z,-3.95
2023-02-13T05:35:25.707Z,-4.06
2023-02-13T05:38:27.878Z,-3.98
2023-02-13T05:41:30.322Z,-3.86
2023-02-13T05:44:32.922Z,-3.62
2023-02-13T05:47:35.151Z,-3.63
2023-02-13T05:50:37.570Z,-3.39
2023-02-13T05:53:39.878Z,-3.42
2023-02-13T05:56:42.142Z,-3.94
2023-02-13T05:59:44.599Z,-3.93
2023-02-13T06:02:46.840Z,-3.89
2023-02-13T06:05:49.024Z,-3.85
2023-02-13T06:08:51.802Z,-3.80
2023-02-13T06:11:54.073Z,-3.65
2023-02-13T06:14:56.271Z,-3.69
2023-02-13T06:17:58.660Z,-3.64
2023-02-13T06:21:01.534Z,-3.29
2023-02-13T06:24:05.169Z,-2.97
2023-02-13T06:27:07.368Z,-2.78
2023-02-13T06:30:10.058Z,-2.81
2023-02-13T06:33:12.288Z,-3.12
2023-02-13T06:36:14.457Z,-3.46
2023-02-13T06:39:16.647Z,-3.58
2023-02-13T06:42:18.944Z,-3.49
2023-02-13T06:45:21.116Z,-3.40
2023-02-13T06:48:23.332Z,-3.57
2023-02-13T06:51:25.532Z,-3.75
2023-02-13T06:54:44.758Z,-3.54
2023-02-13T06:57:49.056Z,-3.35
2023-02-13T07:00:52.331Z,-3.12
2023-02-13T07:03:55.093Z,-2.86
2023-02-13T07:06:57.868Z,-2.76
2023-02-13T07:10:00.814Z,-2.54
2023-02-13T07:13:06.101Z,-2.30
2023-02-13T07:16:08.581Z,-1.92
2023-02-13T07:19:10.868Z,-1.58
2023-02-13T07:22:13.357Z,-1.34
2023-02-13T07:25:15.479Z,-1.10
2023-02-13T07:28:17.625Z,-0.80
2023-02-13T07:31:19.970Z,-0.54
2023-02-13T07:34:22.450Z,-0.32
2023-02-13T07:37:24.694Z,0.04
2023-02-13T07:40:26.962Z,0.27
2023-02-13T07:43:29.360Z,0.55
2023-02-13T07:46:31.625Z,0.69
2023-02-13T07:49:34.380Z,0.96
2023-02-13T07:52:37.961Z,1.15
2023-02-13T07:55:40.226Z,1.40
2023-02-13T07:58:42.453Z,1.64
2023-02-13T08:01:44.665Z,1.93
2023-02-13T08:04:46.898Z,2.14
2023-02-13T08:07:49.117Z,2.37
2023-02-13T08:11:09.921Z,2.36
2023-02-13T08:14:12.543Z,2.40
2023-02-13T08:17:14.726Z,2.43
2023-02-13T08:20:17.217Z,2.68
2023-02-13T08:23:19.471Z,2.63
2023-02-13T08:26:21.658Z,2.84
2023-02-13T08:29:23.887Z,2.95
2023-02-13T08:40:24.506Z,3.16
2023-02-13T08:43:28.160Z,2.84
2023-02-13T08:46:30.397Z,3.13
2023-02-13T08:49:33.299Z,3.28
2023-02-13T08:52:35.533Z,3.52
2023-02-13T08:55:37.689Z,3.57
2023-02-13T08:58:39.878Z,3.71
2023-02-13T09:01:42.190Z,3.63
2023-02-13T09:04:44.649Z,3.54
2023-02-13T09:07:46.857Z,3.39
2023-02-13T09:10:56.751Z,3.59
2023-02-13T09:13:58.971Z,3.86
2023-02-13T09:17:01.222Z,4.08
2023-02-13T09:20:03.483Z,4.30
2023-02-13T09:23:05.758Z,4.63
2023-02-13T09:26:10.705Z,4.72
2023-02-13T09:29:12.895Z,4.84
2023-02-13T09:32:16.072Z,4.68
2023-02-13T09:35:18.884Z,4.13
2023-02-13T09:38:21.066Z,4.61
2023-02-13T09:41:32.556Z,4.94
2023-02-13T09:44:41.552Z,5.00
2023-02-13T09:47:44.579Z,5.09
2023-02-13T09:50:46.806Z,5.00
2023-02-13T09:53:57.881Z,4.79
2023-02-13T09:57:15.878Z,4.52
2023-02-13T10:00:31.814Z,4.50
2023-02-13T10:03:56.019Z,4.22
2023-02-13T10:07:13.088Z,4.24
2023-02-13T10:10:21.906Z,4.64
2023-02-13T10:13:40.545Z,4.86
2023-02-13T10:16:50.880Z,4.93
2023-02-13T10:20:07.753Z,5.19
2023-02-13T10:23:31.876Z,5.45
2023-02-13T10:26:48.307Z,5.77
2023-02-13T10:30:05.280Z,5.66
2023-02-13T10:33:52.387Z,5.53
2023-02-13T10:36:55.242Z,5.48
2023-02-13T10:39:57.545Z,5.45
2023-02-13T10:43:10.037Z,5.51
2023-02-13T10:46:29.314Z,5.62
2023-02-13T10:49:37.379Z,5.59
2023-02-13T10:52:48.044Z,5.96
2023-02-13T10:56:00.552Z,6.20
2023-02-13T10:59:30.325Z,6.13
2023-02-13T11:02:34.776Z,6.20
2023-02-13T11:05:38.789Z,5.83
2023-02-13T11:08:43.871Z,6.11
2023-02-13T11:11:46.180Z,6.13
2023-02-13T11:15:02.326Z,6.26
2023-02-13T11:18:14.528Z,6.60
2023-02-13T11:21:23.918Z,6.49
2023-02-13T11:24:27.539Z,6.49
2023-02-13T11:27:36.039Z,6.10
2023-02-13T11:30:39.265Z,5.95
2023-02-13T11:33:42.137Z,5.72
2023-02-13T11:36:44.428Z,6.24
2023-02-13T11:39:51.201Z,6.00
2023-02-13T11:42:53.634Z,6.00
2023-02-13T11:46:12.677Z,6.19
2023-02-13T11:49:23.744Z,6.05
2023-02-13T11:52:29.517Z,6.18
2023-02-13T11:55:40.229Z,6.26
2023-02-13T11:58:42.804Z,6.37
2023-02-13T12:01:49.289Z,6.07
2023-02-13T12:05:15.142Z,6.19
2023-02-13T12:08:17.380Z,6.13
2023-02-13T12:11:19.468Z,6.22
2023-02-13T12:14:24.926Z,6.28
2023-02-13T12:17:32.046Z,6.51
2023-02-13T12:20:53.774Z,6.45
2023-02-13T12:24:03.678Z,6.25
2023-02-13T12:27:17.859Z,6.33
2023-02-13T12:30:44.923Z,5.92
2023-02-13T12:34:07.116Z,5.81
2023-02-13T12:37:47.699Z,5.85
2023-02-13T12:41:11.584Z,6.07
2023-02-13T12:44:38.765Z,5.81
2023-02-13T12:48:00.491Z,5.90
2023-02-13T12:51:25.421Z,6.12
2023-02-13T12:54:48.631Z,6.18
2023-02-13T12:57:59.796Z,6.20
2023-02-13T13:01:10.286Z,6.21
2023-02-13T13:04:31.360Z,6.35
2023-02-13T13:07:39.665Z,6.25
2023-02-13T13:10:46.555Z,6.15
2023-02-13T13:14:04.210Z,6.24
2023-02-13T13:17:34.115Z,6.26
2023-02-13T13:21:03.439Z,6.35
2023-02-13T13:24:08.608Z,6.21
2023-02-13T13:27:23.618Z,6.35
2023-02-13T13:30:44.304Z,6.36
2023-02-13T13:33:47.099Z,6.44
2023-02-13T13:36:53.372Z,6.51
2023-02-13T13:40:04.519Z,6.60
2023-02-13T13:43:29.790Z,6.63
2023-02-13T13:46:59.314Z,6.58
2023-02-13T13:50:02.157Z,6.81
2023-02-13T13:53:12.923Z,6.78
2023-02-13T13:56:15.369Z,6.91
2023-02-13T13:59:19.723Z,6.79
2023-02-13T14:02:21.890Z,6.67
2023-02-13T14:05:32.079Z,6.68
2023-02-13T14:08:37.196Z,6.47
2023-02-13T14:11:42.029Z,6.40
2023-02-13T14:14:45.294Z,6.39
2023-02-13T14:17:50.332Z,6.29
2023-02-13T14:21:00.948Z,6.14
2023-02-13T14:24:11.271Z,6.13
2023-02-13T14:27:25.363Z,6.04
2023-02-13T14:30:36.306Z,6.00
2023-02-13T14:33:38.588Z,6.05
2023-02-13T14:36:43.450Z,6.03
2023-02-13T14:40:11.757Z,6.07
2023-02-13T14:43:17.066Z,6.08
2023-02-13T14:46:35.770Z,6.12
2023-02-13T14:49:40.416Z,6.00
2023-02-13T14:52:43.722Z,6.00
2023-02-13T14:55:46.713Z,5.99
2023-02-13T14:58:53.025Z,6.05
2023-02-13T15:02:02.072Z,6.11
2023-02-13T15:05:12.280Z,6.12
2023-02-13T15:08:18.025Z,6.11
2023-02-13T15:11:36.219Z,6.04
2023-02-13T15:14:38.523Z,6.06
2023-02-13T15:17:41.169Z,6.14
2023-02-13T15:20:43.959Z,6.11
2023-02-13T15:23:49.933Z,6.21
2023-02-13T15:27:06.717Z,6.18
2023-02-13T15:30:30.568Z,6.18
2023-02-13T15:33:47.029Z,6.01
2023-02-13T15:36:49.400Z,5.97
2023-02-13T15:39:51.636Z,5.97
2023-02-13T15:42:54.768Z,5.86
2023-02-13T15:46:00.689Z,5.75
2023-02-13T15:49:07.489Z,5.70
2023-02-13T15:52:17.018Z,5.62
2023-02-13T15:55:26.928Z,5.64
2023-02-13T15:58:31.924Z,5.65
2023-02-13T16:01:34.480Z,5.55
2023-02-13T16:04:36.908Z,5.41
2023-02-13T16:07:57.447Z,5.34
2023-02-13T16:11:38.584Z,5.13
2023-02-13T16:14:50.605Z,4.99
2023-02-13T16:17:52.835Z,4.89
2023-02-13T16:20:56.588Z,4.80
2023-02-13T16:24:03.023Z,4.74
2023-02-13T16:27:13.553Z,4.66
2023-02-13T16:30:27.502Z,4.50
2023-02-13T16:33:30.499Z,4.40
2023-02-13T16:36:34.451Z,4.20
2023-02-13T16:39:36.813Z,4.03
2023-02-13T16:42:38.959Z,3.87
2023-02-13T16:45:41.251Z,3.70
2023-02-13T16:48:45.919Z,3.56
2023-02-13T16:51:51.702Z,3.42
2023-02-13T16:55:00.869Z,3.30
2023-02-13T16:58:05.280Z,3.17
2023-02-13T17:01:07.594Z,3.15
2023-02-13T17:04:24.035Z,3.01
2023-02-13T17:07:31.610Z,2.93
2023-02-13T17:10:38.470Z,2.75
2023-02-13T17:13:42.091Z,2.52
2023-02-13T17:16:44.570Z,2.35
2023-02-13T17:19:47.060Z,2.40
2023-02-13T17:22:51.412Z,2.46
2023-02-13T17:25:54.186Z,2.40
2023-02-13T17:28:56.598Z,2.26
2023-02-13T17:31:58.864Z,2.02
2023-02-13T17:35:01.289Z,2.10
2023-02-13T17:38:04.358Z,1.98
2023-02-13T17:41:12.349Z,2.12
2023-02-13T17:44:14.725Z,1.95
2023-02-13T17:47:17.279Z,1.92
2023-02-13T17:50:20.221Z,1.54
2023-02-13T17:53:32.185Z,1.62
2023-02-13T17:56:34.486Z,1.48
2023-02-13T17:59:36.974Z,1.37
2023-02-13T18:02:39.527Z,1.33
2023-02-13T18:05:42.566Z,1.47
2023-02-13T18:08:45.066Z,1.10
2023-02-13T18:12:03.696Z,1.16
2023-02-13T18:15:07.879Z,1.24
2023-02-13T18:18:12.497Z,0.97
2023-02-13T18:21:14.727Z,1.04
2023-02-13T18:24:17.186Z,1.14
2023-02-13T18:27:19.733Z,1.14
2023-02-13T18:30:22.155Z,0.98
2023-02-13T18:33:24.695Z,0.90
2023-02-13T18:36:26.932Z,0.63
2023-02-13T18:39:29.214Z,0.59
2023-02-13T18:42:31.724Z,0.44
2023-02-13T18:45:36.249Z,0.41
2023-02-13T18:48:38.695Z,0.53
2023-02-13T18:51:42.489Z,0.55
2023-02-13T18:54:45.739Z,0.48
2023-02-13T18:57:52.440Z,0.43
2023-02-13T19:00:55.163Z,0.46
2023-02-13T19:03:57.689Z,0.59
2023-02-13T19:07:00.254Z,0.46
2023-02-13T19:10:02.898Z,0.49
2023-02-13T19:13:05.775Z,0.37
2023-02-13T19:16:15.569Z,0.26
2023-02-13T19:19:18.160Z,0.24
2023-02-13T19:22:20.320Z,0.21
2023-02-13T19:25:22.888Z,0.25
2023-02-13T19:28:25.433Z,0.20
2023-02-13T19:31:30.192Z,0.27
2023-02-13T19:34:32.601Z,0.09
2023-02-13T19:37:43.523Z,0.04
2023-02-13T19:40:46.858Z,-0.10
2023-02-13T19:43:53.673Z,0.01
2023-02-13T19:46:56.322Z,-0.05
2023-02-13T19:49:58.789Z,-0.08
2023-02-13T19:53:04.202Z,0.15
2023-02-13T19:56:08.317Z,0.32
2023-02-13T19:59:13.351Z,-0.08
2023-02-13T20:02:17.242Z,0.09
2023-02-13T20:05:19.433Z,-0.19
2023-02-13T20:08:21.753Z,-0.11
2023-02-13T20:11:24.009Z,-0.66
2023-02-13T20:14:27.233Z,-0.51
2023-02-13T20:17:30.821Z,-0.08
2023-02-13T20:20:33.385Z,-0.24
2023-02-13T20:23:36.565Z,-0.22
2023-02-13T20:26:39.769Z,-0.47
2023-02-13T20:29:42.759Z,-0.57
2023-02-13T20:32:45.637Z,-0.38
2023-02-13T20:35:47.881Z,-0.46
2023-02-13T20:38:52.724Z,-0.33
2023-02-13T20:41:55.216Z,-0.87
2023-02-13T20:44:57.652Z,-0.80
2023-02-13T20:48:00.104Z,-0.63
2023-02-13T20:51:04.866Z,-0.75
2023-02-13T20:54:07.061Z,-0.56
2023-02-13T20:57:09.439Z,-0.71
2023-02-13T21:00:13.222Z,-0.73
2023-02-13T21:03:15.684Z,-0.73
2023-02-13T21:06:26.477Z,-0.72
2023-02-13T21:09:29.175Z,-0.69
2023-02-13T21:12:31.857Z,-0.78
2023-02-13T21:15:34.396Z,-0.64
2023-02-13T21:18:37.788Z,-0.64
2023-02-13T21:21:44.272Z,-0.71
2023-02-13T21:24:49.884Z,-0.97
2023-02-13T21:27:52.351Z,-1.07
2023-02-13T21:30:54.880Z,-1.00
2023-02-13T21:34:04.720Z,-0.80
2023-02-13T21:37:07.461Z,-0.92
2023-02-13T21:40:10.154Z,-1.09
2023-02-13T21:43:12.308Z,-0.94
2023-02-13T21:46:17.238Z,-0.96
2023-02-13T21:49:19.584Z,-1.16
2023-02-13T21:52:21.791Z,-1.09
2023-02-13T21:55:24.291Z,-1.23
2023-02-13T21:58:27.656Z,-1.01
2023-02-13T22:01:35.467Z,-1.01
2023-02-13T22:04:37.800Z,-1.23
2023-02-13T22:07:59.928Z,-1.11
2023-02-13T22:11:02.224Z,-1.12
2023-02-13T22:14:05.980Z,-1.26
2023-02-13T22:17:08.337Z,-1.03
2023-02-13T22:20:11.686Z,-1.13
2023-02-13T22:23:16.505Z,-1.03
2023-02-13T22:26:21.548Z,-1.00
2023-02-13T22:29:25.748Z,-1.02
2023-02-13T22:32:27.934Z,-1.29
2023-02-13T22:35:30.177Z,-1.28
2023-02-13T22:38:33.631Z,-1.27
2023-02-13T22:41:35.979Z,-1.28
2023-02-13T22:44:38.144Z,-1.39
2023-02-13T22:47:40.306Z,-1.30
2023-02-13T22:50:42.674Z,-1.37
2023-02-13T22:53:45.126Z,-1.34
2023-02-13T22:56:47.415Z,-1.59
2023-02-13T22:59:49.607Z,-1.33
2023-02-13T23:02:51.890Z,-1.42
2023-02-13T23:05:54.118Z,-1.56
2023-02-13T23:08:56.306Z,-1.48
2023-02-13T23:12:16.792Z,-1.47
2023-02-13T23:15:19.771Z,-1.34
2023-02-13T23:18:21.949Z,-1.34
2023-02-13T23:21:25.656Z,-1.15
2023-02-13T23:24:28.937Z,-1.48
2023-02-13T23:27:32.388Z,-1.52
2023-02-13T23:30:34.916Z,-1.44
2023-02-13T23:33:37.200Z,-1.39
2023-02-13T23:36:40.251Z,-1.51
2023-02-13T23:39:42.519Z,-1.65
2023-02-13T23:42:44.746Z,-1.52
2023-02-13T23:45:47.263Z,-1.59
2023-02-13T23:48:49.433Z,-1.67
2023-02-13T23:51:51.677Z,-1.65
2023-02-13T23:54:53.925Z,-1.74
2023-02-13T23:57:56.125Z,-1.72
